Time;durP1;ratioP1;P1;durP2;ratioP2;P2;SDS_P1;SDS_P2;PMS_P1;PMS_P2;Temp;Humidity;BMP_temperature;BMP_pressure;BME280_temperature;BME280_humidity;BME280_pressure;Samples;Min_cycle;Max_cycle;Signal;HPM_P1;HPM_P2
2022/09/04 00:00:53;;;;;;;0.10;0.10;;;;;;;19.03;44.92;101561.84;1985643;29;20111;-67
2022/09/04 00:02:03;;;;;;;0.20;0.20;;;;;;;19.03;45.08;101563.78;1979570;29;20058;-67
2022/09/04 00:03:30;;;;;;;0.20;0.20;;;;;;;19.02;44.82;101568.50;1986808;29;20059;-67
2022/09/04 00:04:44;;;;;;;0.20;0.20;;;;;;;18.99;44.87;101569.28;1980577;29;20112;-67
2022/09/04 00:05:51;;;;;;;0.20;0.20;;;;;;;18.96;45.12;101572.72;1982721;29;20055;-67
2022/09/04 00:07:06;;;;;;;0.20;0.20;;;;;;;18.97;44.91;101568.84;1987135;29;20063;-66
2022/09/04 00:08:29;;;;;;;0.20;0.20;;;;;;;18.95;45.12;101568.44;1979702;29;20512;-66
2022/09/04 00:09:41;;;;;;;0.20;0.20;;;;;;;18.89;45.21;101564.50;1979510;29;20062;-66
2022/09/04 00:10:52;;;;;;;0.20;0.20;;;;;;;18.86;45.44;101567.19;1979342;29;20059;-67
2022/09/04 00:12:03;;;;;;;0.20;0.20;;;;;;;18.83;45.09;101559.75;1979929;29;20134;-67
2022/09/04 00:13:11;;;;;;;0.20;0.20;;;;;;;18.84;45.20;101558.56;1987039;29;20051;-67
2022/09/04 00:14:20;;;;;;;0.20;0.20;;;;;;;18.84;45.06;101567.56;1986541;29;20111;-67
2022/09/04 00:15:26;;;;;;;0.20;0.20;;;;;;;18.82;44.93;101563.66;1986673;29;20107;-67
2022/09/04 00:16:38;;;;;;;0.20;0.20;;;;;;;18.77;45.29;101555.78;1987137;29;20063;-67
2022/09/04 00:17:45;;;;;;;0.20;0.20;;;;;;;18.71;45.34;101563.53;1986423;29;20452;-67
2022/09/04 00:18:56;;;;;;;0.20;0.20;;;;;;;18.66;45.29;101560.38;1984814;29;20551;-67
2022/09/04 00:20:02;;;;;;;0.20;0.20;;;;;;;18.65;45.45;101559.59;1983765;29;21336;-67
2022/09/04 00:21:12;;;;;;;0.20;0.20;;;;;;;18.66;45.54;101560.38;1993594;29;20397;-67
2022/09/04 00:22:24;;;;;;;0.20;0.20;;;;;;;18.65;45.58;101564.25;1993751;29;20145;-67
2022/09/04 00:23:35;;;;;;;0.20;0.20;;;;;;;18.64;45.49;101560.75;1991104;29;20083;-67
2022/09/04 00:24:41;;;;;;;0.20;0.20;;;;;;;18.66;45.22;101563.13;1994231;29;20110;-67
2022/09/04 00:25:56;;;;;;;0.15;0.15;;;;;;;18.63;45.35;101564.63;1990115;29;20054;-67
2022/09/04 00:27:05;;;;;;;0.20;0.20;;;;;;;18.62;45.59;101557.59;1986611;29;20063;-67
2022/09/04 00:28:14;;;;;;;0.10;0.10;;;;;;;18.60;45.61;101568.13;1988346;29;20134;-67
2022/09/04 00:29:25;;;;;;;0.20;0.20;;;;;;;18.57;45.62;101563.41;1993895;29;20085;-67
2022/09/04 00:30:27;;;;;;;0.10;0.10;;;;;;;18.57;45.74;101562.63;1978978;30;20134;-67
2022/09/04 00:31:35;;;;;;;0.20;0.20;;;;;;;18.57;45.65;101568.09;1981974;29;20073;-67
2022/09/04 00:32:40;;;;;;;0.20;0.20;;;;;;;18.56;45.49;101567.31;1985613;29;20051;-67
2022/09/04 00:33:53;;;;;;;0.15;0.15;;;;;;;18.57;45.32;101568.88;1979293;30;20055;-67
2022/09/04 00:35:06;;;;;;;0.20;0.20;;;;;;;18.51;46.03;101570.41;1984073;29;20211;-67
2022/09/04 00:36:11;;;;;;;0.20;0.20;;;;;;;18.54;45.59;101574.31;1986489;29;20465;-68
2022/09/04 00:37:17;;;;;;;0.20;0.20;;;;;;;18.53;45.86;101568.06;1992726;29;20141;-67
2022/09/04 00:38:30;;;;;;;0.20;0.20;;;;;;;18.49;45.60;101572.72;1991226;29;20054;-67
2022/09/04 00:39:37;;;;;;;0.10;0.10;;;;;;;18.49;45.78;101569.22;1986719;29;20059;-67
2022/09/04 00:40:43;;;;;;;0.10;0.10;;;;;;;18.49;45.85;101569.97;1984631;29;20062;-67
2022/09/04 00:42:01;;;;;;;0.20;0.20;;;;;;;18.48;45.74;101581.28;1989927;29;20494;-67
2022/09/04 00:43:31;;;;;;;0.20;0.20;;;;;;;18.40;46.12;101579.66;1986475;29;20058;-67
2022/09/04 00:45:03;;;;;;;0.20;0.20;;;;;;;18.34;45.96;101575.66;1986359;29;20485;-67
2022/09/04 00:46:20;;;;;;;0.20;0.20;;;;;;;18.29;46.16;101574.03;1986459;29;20063;-67
2022/09/04 00:47:42;;;;;;;0.20;0.20;;;;;;;18.30;46.33;101580.31;1979331;30;20070;-67
2022/09/04 00:49:17;;;;;;;0.20;0.20;;;;;;;18.22;46.34;101578.66;1979313;30;20123;-67
2022/09/04 00:50:45;;;;;;;0.20;0.20;;;;;;;18.19;46.25;101580.16;1986426;29;21456;-67
2022/09/04 00:51:56;;;;;;;0.13;0.13;;;;;;;18.18;46.35;101575.88;1986606;29;20087;-67
2022/09/04 00:53:25;;;;;;;0.20;0.20;;;;;;;18.14;46.35;101577.75;1988971;29;20510;-67
2022/09/04 00:54:47;;;;;;;0.20;0.20;;;;;;;18.10;47.07;101590.63;1987340;29;20058;-67
2022/09/04 00:56:03;;;;;;;0.20;0.20;;;;;;;18.08;46.93;101581.19;1988054;29;20138;-67
2022/09/04 00:57:32;;;;;;;0.17;0.17;;;;;;;18.07;46.80;101582.38;1986419;29;20063;-67
2022/09/04 00:58:54;;;;;;;0.20;0.20;;;;;;;18.06;47.09;101584.31;1986190;29;20056;-67
2022/09/04 01:00:08;;;;;;;0.20;0.20;;;;;;;18.08;46.83;101582.00;1986457;29;20078;-67
2022/09/04 01:01:16;;;;;;;0.17;0.17;;;;;;;18.12;46.90;101588.31;1986651;29;20141;-67
2022/09/04 01:02:30;;;;;;;0.30;0.30;;;;;;;18.16;46.51;101597.31;1986111;29;20500;-68
2022/09/04 01:04:18;;;;;;;0.20;0.20;;;;;;;18.10;46.89;101587.88;1986071;29;20148;-67
2022/09/04 01:05:38;;;;;;;0.20;0.20;;;;;;;18.07;47.05;101594.09;1986142;29;20587;-67
2022/09/04 01:06:49;;;;;;;0.20;0.20;;;;;;;18.09;47.14;101597.25;1986142;29;20086;-67
2022/09/04 01:08:03;;;;;;;0.20;0.20;;;;;;;18.10;46.88;101593.34;1986688;29;20508;-67
2022/09/04 01:09:23;;;;;;;0.10;0.10;;;;;;;18.10;47.01;101595.28;1979218;30;20059;-67
2022/09/04 01:10:34;;;;;;;0.20;0.20;;;;;;;18.11;46.95;101596.88;1985636;29;20150;-67
2022/09/04 01:11:43;;;;;;;0.20;0.20;;;;;;;18.09;47.00;101601.94;1986609;29;20606;-67
2022/09/04 01:12:53;;;;;;;0.20;0.20;;;;;;;18.08;46.92;101601.13;1986348;29;20127;-68
2022/09/04 01:14:12;;;;;;;0.20;0.20;;;;;;;18.04;47.11;101600.31;1979279;29;20059;-67
2022/09/04 01:15:23;;;;;;;0.22;0.22;;;;;;;18.04;47.32;101596.78;1985124;29;20093;-66
2022/09/04 01:16:34;;;;;;;0.20;0.20;;;;;;;18.06;47.21;101597.22;1986085;29;20134;-67
2022/09/04 01:17:44;;;;;;;0.20;0.20;;;;;;;18.07;47.04;101594.09;1987937;29;20059;-67
2022/09/04 01:18:56;;;;;;;0.20;0.20;;;;;;;18.09;47.18;101600.00;1980685;29;20071;-68
2022/09/04 01:20:08;;;;;;;0.20;0.20;;;;;;;18.06;46.98;101605.41;1985734;29;20063;-67
2022/09/04 01:21:30;;;;;;;0.20;0.20;;;;;;;17.96;47.34;101604.13;1987430;29;20134;-67
2022/09/04 01:22:50;;;;;;;0.20;0.20;;;;;;;17.84;47.91;101612.53;1987686;29;20059;-68
2022/09/04 01:24:17;;;;;;;0.10;0.10;;;;;;;17.84;47.71;101607.84;1988182;29;20058;-67
2022/09/04 01:25:36;;;;;;;0.17;0.17;;;;;;;17.76;48.29;101608.91;1988195;29;20125;-67
2022/09/04 01:26:47;;;;;;;0.20;0.20;;;;;;;17.77;48.18;101609.72;1987495;29;20130;-67
2022/09/04 01:27:58;;;;;;;0.10;0.10;;;;;;;17.78;48.03;101609.34;1987891;29;20097;-67
2022/09/04 01:29:14;;;;;;;0.20;0.20;;;;;;;17.80;48.21;101614.44;1995066;29;20090;-67
2022/09/04 01:30:18;;;;;;;0.20;0.20;;;;;;;17.79;48.06;101616.38;1980713;29;20138;-67
2022/09/04 01:31:31;;;;;;;0.20;0.20;;;;;;;17.82;48.23;101620.31;1984789;29;20602;-67
2022/09/04 01:32:43;;;;;;;0.20;0.20;;;;;;;17.79;48.43;101610.91;1987917;29;20125;-67
2022/09/04 01:34:00;;;;;;;0.15;0.15;;;;;;;17.86;48.09;101621.16;1988238;29;20058;-67
2022/09/04 01:35:14;;;;;;;0.20;0.20;;;;;;;17.85;48.26;101625.03;1980633;29;20098;-67
2022/09/04 01:36:27;;;;;;;0.20;0.20;;;;;;;17.81;48.08;101624.19;1985602;29;20130;-67
2022/09/04 01:37:41;;;;;;;0.20;0.20;;;;;;;17.74;48.37;101624.88;1987969;29;20133;-67
2022/09/04 01:38:50;;;;;;;0.20;0.20;;;;;;;17.69;48.86;101622.50;1988224;29;20126;-67
2022/09/04 01:40:07;;;;;;;0.10;0.10;;;;;;;17.59;49.21;101620.41;1980628;30;20067;-68
2022/09/04 01:41:18;;;;;;;0.20;0.20;;;;;;;17.53;49.23;101626.53;1982397;29;20059;-67
2022/09/04 01:42:27;;;;;;;;;;;;;;;17.34;49.68;101630.13;1981237;29;20846;-67
2022/09/04 01:43:31;;;;;;;0.17;0.17;;;;;;;17.37;49.57;101626.66;1980675;29;20012;-67
2022/09/04 01:44:35;;;;;;;0.20;0.20;;;;;;;17.41;49.34;101624.75;1980455;29;20471;-67
2022/09/04 01:46:11;;;;;;;0.20;0.20;;;;;;;17.34;49.61;101626.59;1980472;29;20421;-67
2022/09/04 01:47:20;;;;;;;0.20;0.20;;;;;;;17.37;49.53;101621.22;1982519;29;20058;-66
2022/09/04 01:48:41;;;;;;;0.20;0.20;;;;;;;17.34;49.67;101626.59;1988042;29;20070;-67
2022/09/04 01:49:49;;;;;;;0.20;0.20;;;;;;;17.34;49.88;101619.22;1988031;29;20114;-67
2022/09/04 01:50:56;;;;;;;0.10;0.10;;;;;;;17.37;49.73;101625.88;1993596;29;20496;-67
2022/09/04 01:52:35;;;;;;;0.20;0.20;;;;;;;17.32;49.95;101635.16;1993091;29;20058;-67
2022/09/04 01:53:42;;;;;;;0.20;0.20;;;;;;;17.33;50.19;101635.97;1987609;29;20059;-68
2022/09/04 01:54:53;;;;;;;0.20;0.20;;;;;;;17.34;50.05;101632.06;1988090;29;21126;-68
2022/09/04 01:56:02;;;;;;;0.20;0.20;;;;;;;17.33;49.89;101625.81;1987865;29;20055;-67
2022/09/04 01:57:14;;;;;;;0.20;0.20;;;;;;;17.31;49.98;101627.34;1987895;29;20058;-66
2022/09/04 01:58:27;;;;;;;0.20;0.20;;;;;;;17.33;50.08;101627.78;1987675;29;20058;-66
2022/09/04 01:59:46;;;;;;;0.20;0.20;;;;;;;17.32;49.88;101634.38;1988049;29;20058;-67
2022/09/04 02:01:02;;;;;;;0.20;0.20;;;;;;;17.30;50.17;101636.69;1980711;29;20067;-65
2022/09/04 02:02:12;;;;;;;0.20;0.20;;;;;;;17.30;50.29;101633.97;1985284;29;20054;-66
2022/09/04 02:03:21;;;;;;;0.25;0.25;;;;;;;17.28;50.15;101633.53;1987359;29;20063;-67
2022/09/04 02:04:29;;;;;;;0.10;0.10;;;;;;;17.30;50.09;101633.97;1987866;29;20804;-66
2022/09/04 02:05:48;;;;;;;0.20;0.20;;;;;;;17.30;50.24;101631.25;1987412;29;20125;-66
2022/09/04 02:07:01;;;;;;;0.20;0.20;;;;;;;17.29;50.19;101629.66;1987857;29;20055;-66
2022/09/04 02:08:18;;;;;;;0.20;0.20;;;;;;;17.29;50.21;101630.44;1987669;29;20091;-66
2022/09/04 02:09:35;;;;;;;0.20;0.20;;;;;;;17.25;50.42;101635.03;1987884;29;20203;-67
2022/09/04 02:10:48;;;;;;;0.20;0.20;;;;;;;17.24;50.21;101638.13;1980340;30;20063;-66
2022/09/04 02:12:04;;;;;;;0.20;0.20;;;;;;;17.22;50.54;101641.22;1985797;29;20050;-67
2022/09/04 02:13:21;;;;;;;0.20;0.20;;;;;;;17.21;50.31;101639.66;1987278;29;20055;-67
2022/09/04 02:14:37;;;;;;;0.20;0.20;;;;;;;17.19;50.51;101646.63;1987363;29;20067;-67
2022/09/04 02:15:48;;;;;;;0.20;0.20;;;;;;;17.16;50.47;101633.72;1987792;29;20579;-67
2022/09/04 02:17:07;;;;;;;0.20;0.20;;;;;;;17.08;50.65;101641.00;1987415;29;20054;-67
2022/09/04 02:18:18;;;;;;;0.20;0.20;;;;;;;17.08;50.58;101629.28;1987507;29;20135;-67
2022/09/04 02:19:36;;;;;;;0.20;0.20;;;;;;;17.10;50.74;101641.44;1987691;29;20492;-67
2022/09/04 02:20:43;;;;;;;0.20;0.20;;;;;;;17.08;50.54;101640.22;1987769;29;20105;-67
2022/09/04 02:21:55;;;;;;;0.30;0.30;;;;;;;17.08;50.89;101640.22;1987686;29;20058;-67
2022/09/04 02:23:10;;;;;;;0.20;0.20;;;;;;;17.07;51.04;101642.16;1986637;29;20066;-67
2022/09/04 02:24:22;;;;;;;0.20;0.20;;;;;;;17.06;51.04;101642.53;1986869;29;20074;-67
2022/09/04 02:25:29;;;;;;;0.20;0.20;;;;;;;17.08;50.90;101641.00;1987828;29;20430;-67
2022/09/04 02:26:39;;;;;;;0.20;0.20;;;;;;;17.12;50.91;101643.78;1987206;29;20099;-67
2022/09/04 02:27:48;;;;;;;0.20;0.20;;;;;;;17.11;50.98;101642.22;1987160;29;20416;-67
2022/09/04 02:28:59;;;;;;;0.30;0.30;;;;;;;17.14;50.92;101644.22;1995229;29;20467;-67
2022/09/04 02:30:06;;;;;;;0.20;0.20;;;;;;;17.10;51.08;101637.91;1988395;29;20058;-67
2022/09/04 02:31:17;;;;;;;0.20;0.20;;;;;;;17.10;51.13;101637.91;1987530;29;20054;-67
2022/09/04 02:32:24;;;;;;;0.30;0.30;;;;;;;17.11;50.69;101637.53;1987857;29;20054;-67
2022/09/04 02:33:35;;;;;;;0.13;0.13;;;;;;;17.12;50.86;101641.88;1980365;30;20055;-67
2022/09/04 02:34:48;;;;;;;0.20;0.20;;;;;;;17.07;51.19;101644.09;1984705;29;20059;-67
2022/09/04 02:35:58;;;;;;;0.30;0.30;;;;;;;17.00;50.98;101635.81;1987231;29;20508;-67
2022/09/04 02:37:07;;;;;;;0.20;0.20;;;;;;;16.97;51.23;101637.31;1987586;29;20051;-67
2022/09/04 02:38:18;;;;;;;0.22;0.22;;;;;;;16.96;51.38;101643.13;1987226;29;20071;-67
2022/09/04 02:39:31;;;;;;;0.20;0.20;;;;;;;16.97;51.22;101641.97;1987198;29;20066;-66
2022/09/04 02:40:46;;;;;;;0.17;0.17;;;;;;;16.95;51.23;101641.56;1988081;29;20067;-66
2022/09/04 02:41:59;;;;;;;0.10;0.10;;;;;;;16.89;51.46;101640.25;1987569;29;20135;-67
2022/09/04 02:43:20;;;;;;;0.30;0.30;;;;;;;16.83;51.42;101639.78;1986964;29;20145;-67
2022/09/04 02:44:34;;;;;;;0.20;0.20;;;;;;;16.79;51.44;101644.38;1986895;29;20512;-66
2022/09/04 02:45:45;;;;;;;0.30;0.30;;;;;;;16.79;51.36;101640.88;1986711;29;20637;-67
2022/09/04 02:46:56;;;;;;;0.30;0.30;;;;;;;16.80;51.63;101645.19;1987643;29;20065;-66
2022/09/04 02:48:07;;;;;;;0.20;0.20;;;;;;;16.79;51.50;101644.38;1980192;30;20516;-66
2022/09/04 02:49:19;;;;;;;0.28;0.28;;;;;;;16.79;51.57;101643.63;1984285;29;20062;-67
2022/09/04 02:50:37;;;;;;;0.20;0.20;;;;;;;16.76;51.50;101636.16;1986777;29;20067;-67
2022/09/04 02:51:55;;;;;;;0.20;0.20;;;;;;;16.73;51.73;101645.84;1987503;29;20059;-66
2022/09/04 02:53:09;;;;;;;0.22;0.22;;;;;;;16.75;51.74;101643.53;1980242;30;20059;-67
2022/09/04 02:54:21;;;;;;;0.20;0.20;;;;;;;16.73;51.74;101642.34;1986072;29;20058;-67
2022/09/04 02:55:43;;;;;;;0.30;0.30;;;;;;;16.70;51.85;101640.34;1986821;29;20188;-66
2022/09/04 02:56:51;;;;;;;0.20;0.20;;;;;;;16.71;51.92;101642.72;1986484;29;20063;-66
2022/09/04 02:58:03;;;;;;;0.20;0.20;;;;;;;16.69;52.00;101638.75;1987581;29;20111;-67
2022/09/04 02:59:18;;;;;;;0.20;0.20;;;;;;;16.64;52.09;101641.75;1986447;29;20134;-66
2022/09/04 03:00:24;;;;;;;0.20;0.20;;;;;;;16.61;52.54;101642.50;1986598;29;20129;-66
2022/09/04 03:01:36;;;;;;;0.20;0.20;;;;;;;16.59;52.87;101645.56;1986896;29;20563;-67
2022/09/04 03:02:50;;;;;;;0.20;0.20;;;;;;;16.60;52.20;101646.38;1980002;29;20055;-67
2022/09/04 03:04:01;;;;;;;0.20;0.20;;;;;;;16.58;52.29;101643.22;1984737;29;20122;-66
2022/09/04 03:05:11;;;;;;;0.20;0.20;;;;;;;16.59;52.33;101644.78;1985171;29;20090;-66
2022/09/04 03:06:22;;;;;;;0.20;0.20;;;;;;;16.56;52.46;101650.97;1986823;29;20059;-67
2022/09/04 03:07:28;;;;;;;;;;;;;;;16.38;52.97;101645.13;1987585;29;20793;-66
2022/09/04 03:08:36;;;;;;;0.20;0.20;;;;;;;16.50;52.56;101646.94;1987353;29;19989;-67
2022/09/04 03:09:43;;;;;;;0.20;0.20;;;;;;;16.53;52.24;101648.94;1985966;29;20134;-67
2022/09/04 03:10:52;;;;;;;0.30;0.30;;;;;;;16.54;52.27;101639.66;1987516;29;20059;-67
2022/09/04 03:11:59;;;;;;;0.30;0.30;;;;;;;16.55;52.51;101646.66;1985940;29;20055;-67
2022/09/04 03:13:09;;;;;;;0.20;0.20;;;;;;;16.49;52.54;101645.38;1985792;29;20480;-67
2022/09/04 03:14:18;;;;;;;0.22;0.22;;;;;;;16.46;52.55;101640.66;1987553;29;20161;-66
2022/09/04 03:15:27;;;;;;;0.25;0.25;;;;;;;16.42;52.62;101640.56;1986263;29;20059;-67
2022/09/04 03:16:39;;;;;;;0.20;0.20;;;;;;;16.41;52.84;101647.94;1985412;29;20059;-66
2022/09/04 03:17:49;;;;;;;0.20;0.20;;;;;;;16.40;52.67;101645.56;1985761;29;20119;-67
2022/09/04 03:19:00;;;;;;;0.30;0.30;;;;;;;16.37;52.87;101643.56;1980062;29;20548;-66
2022/09/04 03:20:09;;;;;;;0.20;0.20;;;;;;;16.37;52.70;101643.56;1985014;29;20070;-66
2022/09/04 03:21:18;;;;;;;0.22;0.22;;;;;;;16.36;52.97;101653.66;1985348;29;20090;-67
2022/09/04 03:22:27;;;;;;;0.30;0.30;;;;;;;16.36;52.91;101645.50;1987259;29;20525;-66
2022/09/04 03:23:38;;;;;;;0.30;0.30;;;;;;;16.38;52.87;101645.94;1986674;29;20084;-65
2022/09/04 03:25:00;;;;;;;0.30;0.30;;;;;;;16.39;53.09;101646.72;1985023;29;20064;-66
2022/09/04 03:26:16;;;;;;;0.30;0.30;;;;;;;16.33;53.46;101653.63;1984966;29;20088;-65
2022/09/04 03:27:19;;;;;;;0.30;0.30;;;;;;;16.30;53.21;101655.09;1986084;29;20062;-66
2022/09/04 03:28:32;;;;;;;0.30;0.30;;;;;;;16.30;53.37;101654.31;1991975;29;20058;-65
2022/09/04 03:29:45;;;;;;;0.20;0.20;;;;;;;16.27;53.40;101650.38;1991343;29;20184;-67
2022/09/04 03:30:48;;;;;;;0.30;0.30;;;;;;;16.29;53.18;101660.91;1987349;29;20058;-67
2022/09/04 03:32:05;;;;;;;0.30;0.30;;;;;;;16.24;53.53;101651.09;1979910;30;20141;-67
2022/09/04 03:33:23;;;;;;;0.20;0.20;;;;;;;16.24;53.65;101656.56;1986177;29;20469;-67
2022/09/04 03:34:36;;;;;;;0.20;0.20;;;;;;;16.27;53.36;101660.47;1986213;29;20142;-67
2022/09/04 03:35:43;;;;;;;0.30;0.30;;;;;;;16.28;53.51;101665.56;1986650;29;20505;-67
2022/09/04 03:36:56;;;;;;;0.30;0.30;;;;;;;16.27;53.58;101661.28;1979993;30;20218;-67
2022/09/04 03:38:14;;;;;;;0.20;0.20;;;;;;;16.19;53.93;101653.31;1984514;29;20559;-66
2022/09/04 03:39:25;;;;;;;0.20;0.20;;;;;;;16.16;54.05;101660.28;1985926;29;20119;-67
2022/09/04 03:40:36;;;;;;;0.30;0.30;;;;;;;16.16;54.04;101656.75;1988113;29;20058;-67
2022/09/04 03:41:47;;;;;;;0.28;0.28;;;;;;;16.14;54.09;101657.09;1979853;29;20062;-66
2022/09/04 03:43:06;;;;;;;0.30;0.30;;;;;;;16.14;53.98;101661.78;1984077;29;20130;-67
2022/09/04 03:44:21;;;;;;;0.47;0.30;;;;;;;16.10;54.47;101667.16;1987170;29;20367;-66
2022/09/04 03:45:34;;;;;;;0.20;0.20;;;;;;;16.12;54.10;101666.78;1986240;29;20127;-65
2022/09/04 03:46:50;;;;;;;0.20;0.20;;;;;;;16.12;54.00;101670.31;1979653;30;20052;-66
2022/09/04 03:48:08;;;;;;;0.20;0.20;;;;;;;16.07;54.52;101667.88;1985512;29;20058;-66
2022/09/04 03:49:21;;;;;;;0.30;0.30;;;;;;;16.09;54.28;101673.72;1984753;29;20063;-66
2022/09/04 03:50:30;;;;;;;0.20;0.20;;;;;;;16.09;54.29;101673.72;1986403;29;20094;-66
2022/09/04 03:51:42;;;;;;;0.20;0.20;;;;;;;16.05;54.32;101667.44;1993254;29;20122;-66
2022/09/04 03:52:55;;;;;;;0.20;0.20;;;;;;;16.07;54.35;101673.31;1985628;29;20521;-66
2022/09/04 03:54:09;;;;;;;0.30;0.30;;;;;;;16.04;54.85;101671.31;1985396;29;20050;-67
2022/09/04 03:55:28;;;;;;;0.30;0.30;;;;;;;16.01;54.85;101671.22;1985651;29;20130;-66
2022/09/04 03:56:49;;;;;;;0.28;0.28;;;;;;;15.92;54.96;101676.88;1979646;30;20608;-67
2022/09/04 03:58:05;;;;;;;0.30;0.30;;;;;;;15.97;54.54;101671.16;1979057;30;20063;-66
2022/09/04 03:59:12;;;;;;;0.20;0.20;;;;;;;16.00;54.61;101675.88;1985563;29;20130;-67
2022/09/04 04:00:19;;;;;;;0.20;0.20;;;;;;;16.02;54.46;101679.03;1985553;29;20122;-67
2022/09/04 04:01:31;;;;;;;0.20;0.20;;;;;;;16.04;54.70;101673.25;1987057;29;20137;-67
2022/09/04 04:03:16;;;;;;;0.20;0.20;;;;;;;16.02;54.90;101680.97;1985972;29;20059;-66
2022/09/04 04:04:42;;;;;;;0.20;0.20;;;;;;;16.02;54.68;101681.78;1979726;29;20055;-66
2022/09/04 04:05:56;;;;;;;0.20;0.20;;;;;;;16.05;54.58;101686.50;1985540;29;20058;-67
2022/09/04 04:07:08;;;;;;;0.20;0.20;;;;;;;16.08;54.98;101685.78;1985317;29;20145;-67
2022/09/04 04:08:31;;;;;;;0.20;0.20;;;;;;;16.02;55.17;101680.97;1985282;29;20054;-67
2022/09/04 04:09:48;;;;;;;0.20;0.20;;;;;;;16.03;55.21;101691.50;1979481;29;20123;-66
2022/09/04 04:11:02;;;;;;;0.30;0.30;;;;;;;16.00;55.22;101684.06;1979726;30;20121;-66
2022/09/04 04:12:27;;;;;;;0.20;0.20;;;;;;;15.97;55.17;101686.69;1984376;29;20070;-66
2022/09/04 04:13:53;;;;;;;0.30;0.30;;;;;;;15.95;55.34;101686.28;1985035;29;20058;-66
2022/09/04 04:15:12;;;;;;;0.20;0.20;;;;;;;15.90;55.70;101690.03;1984825;29;20465;-66
2022/09/04 04:16:29;;;;;;;0.25;0.25;;;;;;;15.93;55.31;101694.00;1984873;29;20058;-66
2022/09/04 04:17:53;;;;;;;0.20;0.20;;;;;;;15.91;55.62;101691.66;1979584;29;20055;-67
2022/09/04 04:19:17;;;;;;;0.20;0.20;;;;;;;15.90;55.77;101700.94;1978912;30;20063;-66
2022/09/04 04:20:35;;;;;;;0.20;0.20;;;;;;;15.94;55.54;101695.56;1985137;29;20119;-67
2022/09/04 04:21:54;;;;;;;0.30;0.30;;;;;;;15.94;55.75;101696.38;1984434;29;20130;-66
2022/09/04 04:23:09;;;;;;;0.20;0.20;;;;;;;15.94;55.63;101696.38;1984508;29;20085;-67
2022/09/04 04:24:37;;;;;;;0.20;0.20;;;;;;;15.89;55.92;101704.81;1985946;29;20059;-66
2022/09/04 04:25:59;;;;;;;0.28;0.28;;;;;;;15.86;56.06;101702.81;1979478;29;20055;-67
2022/09/04 04:27:21;;;;;;;0.30;0.30;;;;;;;15.87;56.34;101707.09;1979529;30;20501;-67
2022/09/04 04:28:40;;;;;;;0.20;0.20;;;;;;;15.81;56.64;101703.06;1991473;29;20495;-66
2022/09/04 04:30:02;;;;;;;0.20;0.20;;;;;;;15.78;56.28;101692.91;1990285;29;20199;-66
2022/09/04 04:31:13;;;;;;;0.20;0.20;;;;;;;15.78;56.52;101697.53;1978441;30;20171;-66
2022/09/04 04:32:32;;;;;;;0.20;0.20;;;;;;;15.76;56.37;101702.56;1980366;29;20066;-66
2022/09/04 04:33:43;;;;;;;0.20;0.20;;;;;;;15.74;56.58;101702.94;1979494;30;20059;-66
2022/09/04 04:35:02;;;;;;;0.30;0.30;;;;;;;15.74;56.72;101708.38;1979477;29;20554;-66
2022/09/04 04:36:16;;;;;;;0.38;0.38;;;;;;;15.76;56.83;101706.06;1979574;29;20633;-67
2022/09/04 04:37:26;;;;;;;0.30;0.30;;;;;;;15.69;56.83;101716.00;1979413;29;20055;-66
2022/09/04 04:38:46;;;;;;;0.30;0.30;;;;;;;15.70;56.77;101710.22;1979444;30;20127;-66
2022/09/04 04:39:56;;;;;;;0.30;0.30;;;;;;;15.66;57.05;101709.34;1978678;29;20416;-66
2022/09/04 04:41:15;;;;;;;0.20;0.20;;;;;;;15.64;57.00;101710.81;1983607;29;20088;-67
2022/09/04 04:42:25;;;;;;;0.30;0.30;;;;;;;15.63;56.81;101717.44;1980764;29;20457;-67
2022/09/04 04:43:32;;;;;;;;;;;;;;;15.42;57.85;101709.53;1987538;29;20093;-65
2022/09/04 04:46:16;;;;;;;0.40;0.40;;;;;;;15.42;57.82;101716.91;1985449;29;20115;-66
2022/09/04 04:47:35;;;;;;;0.30;0.30;;;;;;;15.35;57.98;101717.47;1983720;29;20087;-67
2022/09/04 04:49:09;;;;;;;0.30;0.30;;;;;;;15.30;57.79;101720.47;1979906;29;20473;-67
2022/09/04 04:50:21;;;;;;;0.30;0.30;;;;;;;15.31;57.85;101716.63;1986654;29;20059;-67
2022/09/04 04:51:42;;;;;;;0.20;0.20;;;;;;;15.31;58.23;101716.63;1986201;29;20086;-68
2022/09/04 04:52:55;;;;;;;0.30;0.30;;;;;;;15.32;57.95;101723.63;1986672;29;20052;-67
2022/09/04 04:54:05;;;;;;;0.30;0.30;;;;;;;15.34;58.15;101717.84;1986499;29;20129;-68
2022/09/04 04:55:21;;;;;;;0.30;0.30;;;;;;;15.32;58.06;101723.63;1986660;29;20061;-67
2022/09/04 04:56:30;;;;;;;0.30;0.30;;;;;;;15.32;58.02;101718.19;1986869;29;20055;-67
2022/09/04 04:57:44;;;;;;;0.30;0.30;;;;;;;15.27;58.49;101726.59;1986495;29;20114;-68
2022/09/04 04:59:01;;;;;;;0.30;0.30;;;;;;;15.23;58.33;101714.84;1986551;29;20470;-67
2022/09/04 05:00:10;;;;;;;0.30;0.30;;;;;;;15.25;58.36;101720.75;1986382;29;20058;-67
2022/09/04 05:01:26;;;;;;;0.30;0.30;;;;;;;15.25;58.41;101726.19;1986735;29;20067;-67
2022/09/04 05:02:34;;;;;;;0.30;0.30;;;;;;;15.28;58.37;101727.41;1986773;29;20062;-67
2022/09/04 05:03:52;;;;;;;0.30;0.30;;;;;;;15.24;58.55;101732.75;1985359;29;20054;-67
2022/09/04 05:05:02;;;;;;;0.30;0.30;;;;;;;15.28;58.23;101728.22;1985763;29;20516;-67
2022/09/04 05:06:13;;;;;;;0.30;0.30;;;;;;;15.25;58.37;101723.47;1986859;29;20116;-65
2022/09/04 05:07:26;;;;;;;0.30;0.30;;;;;;;15.25;58.13;101726.19;1985645;29;20063;-66
2022/09/04 05:08:38;;;;;;;0.30;0.30;;;;;;;15.25;58.54;101728.91;1985422;29;20492;-66
2022/09/04 05:09:48;;;;;;;0.30;0.30;;;;;;;15.24;58.39;101731.97;1985596;29;20070;-66
2022/09/04 05:10:53;;;;;;;;;;;;;;;15.06;59.34;101730.72;1987291;29;20135;-67
2022/09/04 05:12:05;;;;;;;0.30;0.30;;;;;;;15.15;59.06;101729.41;1985118;29;20386;-66
2022/09/04 05:13:13;;;;;;;0.30;0.30;;;;;;;15.16;58.85;101730.22;1979664;29;20047;-66
2022/09/04 05:14:28;;;;;;;0.30;0.30;;;;;;;15.18;58.93;101733.34;1986146;29;20393;-66
2022/09/04 05:15:38;;;;;;;0.40;0.40;;;;;;;15.21;58.56;101738.88;1979177;29;20486;-66
2022/09/04 05:17:09;;;;;;;0.50;0.50;;;;;;;15.16;58.75;101743.81;1985807;29;20119;-67
2022/09/04 05:18:22;;;;;;;0.30;0.30;;;;;;;15.18;59.03;101749.66;1985288;29;20416;-67
2022/09/04 05:19:32;;;;;;;0.30;0.30;;;;;;;15.20;59.15;101741.97;1985356;29;20059;-66
2022/09/04 05:20:41;;;;;;;;;;;;;;;15.07;59.24;101752.13;1987129;29;20115;-66
2022/09/04 05:21:52;;;;;;;0.32;0.32;;;;;;;15.18;58.98;101752.41;1977219;30;19964;-66
2022/09/04 05:23:05;;;;;;;0.30;0.30;;;;;;;15.24;59.08;101754.50;1978242;29;20134;-66
2022/09/04 05:24:14;;;;;;;0.30;0.30;;;;;;;15.28;58.42;101752.69;1985659;29;20137;-66
2022/09/04 05:25:23;;;;;;;0.40;0.40;;;;;;;15.32;58.40;101755.50;1979333;29;20154;-66
2022/09/04 05:26:33;;;;;;;0.30;0.30;;;;;;;15.37;58.40;101763.38;1983727;29;20082;-66
2022/09/04 05:27:47;;;;;;;0.30;0.30;;;;;;;15.36;58.68;101757.19;1985221;29;20087;-66
2022/09/04 05:28:58;;;;;;;0.32;0.32;;;;;;;15.39;58.30;101756.50;1986562;29;20062;-67
2022/09/04 05:30:06;;;;;;;0.30;0.30;;;;;;;15.44;58.21;101753.53;1980077;29;20205;-66
2022/09/04 05:31:20;;;;;;;0.30;0.30;;;;;;;15.44;58.43;101761.69;1985845;29;20139;-67
2022/09/04 05:32:28;;;;;;;0.30;0.30;;;;;;;15.47;58.13;101763.72;1984686;29;20134;-67
2022/09/04 05:33:37;;;;;;;0.30;0.30;;;;;;;15.48;58.24;101772.66;1979177;29;20087;-68
2022/09/04 05:34:58;;;;;;;0.28;0.28;;;;;;;15.40;58.54;101763.50;1979152;29;20123;-67
2022/09/04 05:36:09;;;;;;;0.30;0.30;;;;;;;15.47;58.05;101774.59;1979213;29;20099;-67
2022/09/04 05:37:15;;;;;;;0.30;0.30;;;;;;;15.50;58.37;101773.09;1979271;30;20130;-66
2022/09/04 05:38:26;;;;;;;0.30;0.30;;;;;;;15.52;57.95;101779.78;1979196;30;20133;-67
2022/09/04 05:39:31;;;;;;;0.40;0.40;;;;;;;15.51;58.25;101780.91;1979149;29;20640;-66
2022/09/04 05:40:49;;;;;;;0.30;0.30;;;;;;;15.51;58.64;101775.47;1981523;29;20059;-66
2022/09/04 05:42:11;;;;;;;0.40;0.40;;;;;;;15.49;58.36;101783.19;1985842;29;20156;-67
2022/09/04 05:43:29;;;;;;;0.38;0.38;;;;;;;15.50;58.50;101773.09;1978813;30;20091;-66
2022/09/04 05:44:46;;;;;;;0.30;0.30;;;;;;;15.53;58.12;101778.63;1985145;29;20067;-66
2022/09/04 05:45:58;;;;;;;0.30;0.30;;;;;;;15.54;58.29;101784.88;1986160;29;20466;-66